createdAt,value
2022-10-31T00:00:49.921Z,20.50
2022-10-31T00:03:17.842Z,20.23
2022-10-31T00:05:46.151Z,13.55
2022-10-31T00:08:13.350Z,20.52
2022-10-31T00:10:40.930Z,12.63
2022-10-31T00:13:09.104Z,20.30
2022-10-31T00:15:37.057Z,21.02
2022-10-31T00:18:04.937Z,12.52
2022-10-31T00:20:32.362Z,13.23
2022-10-31T00:23:00.271Z,10.20
2022-10-31T00:25:28.091Z,25.20
2022-10-31T00:27:56.277Z,17.00
2022-10-31T00:30:24.045Z,10.07
2022-10-31T00:32:51.362Z,17.23
2022-10-31T00:35:18.626Z,13.07
2022-10-31T00:37:45.833Z,15.90
2022-10-31T00:40:13.230Z,16.25
2022-10-31T00:42:43.653Z,15.65
2022-10-31T00:45:11.633Z,18.17
2022-10-31T00:47:39.065Z,10.48
2022-10-31T00:50:06.906Z,13.63
2022-10-31T00:52:34.257Z,13.07
2022-10-31T00:55:01.618Z,17.55
2022-10-31T00:57:28.854Z,18.70
2022-10-31T00:59:56.032Z,19.38
2022-10-31T01:02:23.334Z,11.88
2022-10-31T01:04:50.667Z,17.45
2022-10-31T01:07:17.852Z,20.95
2022-10-31T01:09:45.030Z,15.57
2022-10-31T01:12:12.226Z,11.77
2022-10-31T01:14:39.526Z,10.90
2022-10-31T01:17:06.755Z,13.85
2022-10-31T01:19:34.023Z,23.20
2022-10-31T01:22:01.266Z,15.20
2022-10-31T01:24:28.516Z,11.48
2022-10-31T01:26:55.753Z,13.38
2022-10-31T01:29:22.942Z,18.98
2022-10-31T01:31:50.158Z,21.98
2022-10-31T01:34:18.618Z,20.38
2022-10-31T01:36:51.969Z,13.90
2022-10-31T01:39:20.300Z,15.32
2022-10-31T01:41:49.906Z,17.10
2022-10-31T01:44:17.295Z,13.57
2022-10-31T01:46:47.560Z,16.60
2022-10-31T01:49:17.535Z,10.05
2022-10-31T01:51:48.458Z,12.40
2022-10-31T01:54:17.659Z,17.75
2022-10-31T01:56:46.351Z,19.23
2022-10-31T01:59:14.651Z,15.50
2022-10-31T02:01:42.436Z,22.17
2022-10-31T02:04:10.095Z,15.43
2022-10-31T02:06:46.698Z,11.95
2022-10-31T02:09:14.272Z,15.75
2022-10-31T02:11:42.003Z,15.10
2022-10-31T02:14:09.263Z,25.48
2022-10-31T02:16:36.450Z,22.95
2022-10-31T02:19:04.230Z,17.40
2022-10-31T02:21:37.486Z,18.33
2022-10-31T02:24:23.315Z,16.73
2022-10-31T02:26:53.586Z,12.63
2022-10-31T02:29:29.824Z,10.95
2022-10-31T02:32:02.279Z,14.10
2022-10-31T02:34:44.565Z,15.32
2022-10-31T02:37:24.306Z,17.90
2022-10-31T02:39:51.486Z,19.10
2022-10-31T02:42:24.816Z,20.25
2022-10-31T02:44:57.299Z,16.45
2022-10-31T02:47:28.210Z,20.10
2022-10-31T02:49:55.389Z,11.38
2022-10-31T02:52:29.382Z,15.50
2022-10-31T02:54:56.751Z,29.58
2022-10-31T02:57:31.179Z,16.05
2022-10-31T03:00:01.656Z,17.55
2022-10-31T03:02:37.760Z,14.65
2022-10-31T03:05:07.301Z,15.68
2022-10-31T03:07:34.443Z,14.07
2022-10-31T03:10:16.795Z,12.43
2022-10-31T03:12:57.360Z,23.52
2022-10-31T03:15:26.938Z,17.92
2022-10-31T03:18:02.626Z,22.73
2022-10-31T03:20:35.526Z,18.85
2022-10-31T03:23:03.250Z,19.45
2022-10-31T03:25:31.248Z,14.15
2022-10-31T03:28:00.246Z,16.15
2022-10-31T03:30:28.158Z,12.07
2022-10-31T03:32:57.544Z,10.52
2022-10-31T03:35:26.273Z,10.95
2022-10-31T03:37:54.590Z,9.35
2022-10-31T03:40:23.667Z,21.05
2022-10-31T03:42:55.222Z,13.95
2022-10-31T03:45:28.297Z,16.52
2022-10-31T03:47:55.848Z,15.18
2022-10-31T03:50:23.603Z,11.63
2022-10-31T03:53:17.356Z,18.52
2022-10-31T03:55:50.807Z,17.33
2022-10-31T03:58:23.160Z,15.15
2022-10-31T04:00:53.158Z,17.42
2022-10-31T04:03:22.904Z,12.68
2022-10-31T04:05:51.632Z,15.02
2022-10-31T04:08:20.801Z,14.68
2022-10-31T04:10:50.160Z,13.88
2022-10-31T04:15:53.512Z,6.88
2022-10-31T04:18:20.755Z,22.10
2022-10-31T04:20:51.717Z,12.18
2022-10-31T04:23:24.231Z,14.82
2022-10-31T04:25:51.556Z,17.63
2022-10-31T04:30:51.013Z,21.42
2022-10-31T04:33:18.605Z,19.48
2022-10-31T04:35:46.002Z,14.45
2022-10-31T04:38:13.212Z,16.73
2022-10-31T04:40:40.495Z,15.82
2022-10-31T04:43:07.829Z,16.42
2022-10-31T04:45:35.047Z,12.57
2022-10-31T04:48:02.709Z,15.48
2022-10-31T04:50:30.201Z,16.90
2022-10-31T04:52:57.443Z,20.98
2022-10-31T04:55:24.766Z,17.58
2022-10-31T04:57:52.172Z,8.52
2022-10-31T05:00:20.864Z,20.65
2022-10-31T05:02:48.788Z,10.10
2022-10-31T05:05:17.019Z,21.95
2022-10-31T05:07:45.563Z,14.00
2022-10-31T05:10:13.810Z,14.20
2022-10-31T05:12:48.019Z,16.40
2022-10-31T05:15:15.573Z,15.68
2022-10-31T05:17:42.839Z,17.52
2022-10-31T05:20:12.419Z,13.45
2022-10-31T05:22:46.026Z,19.27
2022-10-31T05:25:13.417Z,16.35
2022-10-31T05:27:45.082Z,12.13
2022-10-31T05:30:15.685Z,17.65
2022-10-31T05:32:43.726Z,19.13
2022-10-31T05:35:12.895Z,11.73
2022-10-31T05:37:40.195Z,9.63
2022-10-31T05:40:08.650Z,13.88
2022-10-31T05:42:36.282Z,11.57
2022-10-31T05:45:03.523Z,14.25
2022-10-31T05:47:30.692Z,13.43
2022-10-31T05:49:57.922Z,10.35
2022-10-31T05:52:25.233Z,8.13
2022-10-31T05:54:52.468Z,13.20
2022-10-31T05:57:19.652Z,10.48
2022-10-31T05:59:51.011Z,12.52
2022-10-31T06:02:21.654Z,12.50
2022-10-31T06:04:49.386Z,11.23
2022-10-31T06:07:17.031Z,13.57
2022-10-31T06:09:44.411Z,14.95
2022-10-31T06:12:11.654Z,13.32
2022-10-31T06:14:40.112Z,8.95
2022-10-31T06:17:07.271Z,7.43
2022-10-31T06:19:34.523Z,13.30
2022-10-31T06:22:01.717Z,9.60
2022-10-31T06:24:28.924Z,14.13
2022-10-31T06:26:56.182Z,10.80
2022-10-31T06:29:23.673Z,9.63
2022-10-31T06:31:52.925Z,10.73
2022-10-31T06:34:20.170Z,14.52
2022-10-31T06:36:47.851Z,13.43
2022-10-31T06:39:17.771Z,9.48
2022-10-31T06:41:45.055Z,12.90
2022-10-31T06:44:12.252Z,14.48
2022-10-31T06:46:39.454Z,15.85
2022-10-31T06:49:06.771Z,13.30
2022-10-31T06:51:33.962Z,9.82
2022-10-31T06:54:01.159Z,14.60
2022-10-31T06:56:28.382Z,16.05
2022-10-31T06:58:55.623Z,15.43
2022-10-31T07:01:24.613Z,11.77
2022-10-31T07:03:51.943Z,18.10
2022-10-31T07:06:19.177Z,12.07
2022-10-31T07:08:46.476Z,10.32
2022-10-31T07:11:13.685Z,17.92
2022-10-31T07:13:40.970Z,13.07
2022-10-31T07:16:08.396Z,12.23
2022-10-31T07:18:35.902Z,11.00
2022-10-31T07:21:03.100Z,13.13
2022-10-31T07:23:30.303Z,8.00
2022-10-31T07:25:58.291Z,10.35
2022-10-31T07:28:25.751Z,10.73
2022-10-31T07:30:54.009Z,10.55
2022-10-31T07:33:21.279Z,7.25
2022-10-31T07:35:48.739Z,13.40
2022-10-31T07:38:19.794Z,5.75
2022-10-31T07:40:50.875Z,8.55
2022-10-31T07:43:18.149Z,14.43
2022-10-31T07:45:50.520Z,13.57
2022-10-31T07:48:17.740Z,4.72
2022-10-31T07:50:45.489Z,8.02
2022-10-31T07:53:13.368Z,6.45
2022-10-31T07:55:40.987Z,9.70
2022-10-31T07:58:18.212Z,10.77
2022-10-31T08:00:46.556Z,9.77
2022-10-31T08:03:15.041Z,8.93
2022-10-31T08:05:42.723Z,12.05
2022-10-31T08:08:10.329Z,8.98
2022-10-31T08:10:37.932Z,8.73
2022-10-31T08:13:09.634Z,8.50
2022-10-31T08:15:39.208Z,10.57
2022-10-31T08:18:07.386Z,12.32
2022-10-31T08:20:34.846Z,12.05
2022-10-31T08:23:03.608Z,9.88
2022-10-31T08:25:35.629Z,6.30
2022-10-31T08:28:06.162Z,14.63
2022-10-31T08:30:34.155Z,8.50
2022-10-31T08:33:05.514Z,9.85
2022-10-31T08:35:33.445Z,11.40
2022-10-31T08:38:01.398Z,10.23
2022-10-31T08:40:29.743Z,9.32
2022-10-31T08:42:58.161Z,13.75
2022-10-31T08:45:25.692Z,7.07
2022-10-31T08:47:53.044Z,8.57
2022-10-31T08:50:20.407Z,12.90
2022-10-31T08:53:04.238Z,7.32
2022-10-31T08:55:32.811Z,5.20
2022-10-31T08:58:01.563Z,7.70
2022-10-31T09:00:28.990Z,5.30
2022-10-31T09:02:57.361Z,10.82
2022-10-31T09:05:24.716Z,11.80
2022-10-31T09:07:52.022Z,8.52
2022-10-31T09:10:19.248Z,11.55
2022-10-31T09:12:46.460Z,8.30
2022-10-31T09:15:14.195Z,6.38
2022-10-31T09:17:47.459Z,9.55
2022-10-31T09:20:14.736Z,5.43
2022-10-31T09:22:42.716Z,4.90
2022-10-31T09:25:10.258Z,10.75
2022-10-31T09:27:37.452Z,8.55
2022-10-31T09:30:05.558Z,6.13
2022-10-31T09:32:32.836Z,5.10
2022-10-31T09:35:02.454Z,6.78
2022-10-31T09:37:30.695Z,8.05
2022-10-31T09:39:57.935Z,11.38
2022-10-31T09:42:38.086Z,6.60
2022-10-31T09:45:12.909Z,6.72
2022-10-31T09:47:46.258Z,9.15
2022-10-31T09:50:19.874Z,10.18
2022-10-31T09:52:53.892Z,4.78
2022-10-31T09:55:27.347Z,13.63
2022-10-31T09:57:54.907Z,10.07
2022-10-31T10:00:23.730Z,5.82
2022-10-31T10:03:15.144Z,9.85
2022-10-31T10:05:54.028Z,5.03
2022-10-31T10:08:23.283Z,3.42
2022-10-31T10:10:52.175Z,9.20
2022-10-31T10:13:38.468Z,5.78
2022-10-31T10:16:23.615Z,7.00
2022-10-31T10:19:20.165Z,4.35
2022-10-31T10:21:53.183Z,4.55
2022-10-31T10:24:28.091Z,3.60
2022-10-31T10:27:01.373Z,6.68
2022-10-31T10:29:38.058Z,3.38
2022-10-31T10:32:12.293Z,5.93
2022-10-31T10:34:44.664Z,6.18
2022-10-31T10:37:26.801Z,5.25
2022-10-31T10:39:58.330Z,4.60
2022-10-31T10:42:45.735Z,6.32
2022-10-31T10:45:36.319Z,3.90
2022-10-31T10:48:10.571Z,5.85
2022-10-31T10:50:41.024Z,6.35
2022-10-31T10:53:21.964Z,4.30
2022-10-31T10:55:55.235Z,5.55
2022-10-31T10:58:22.590Z,4.13
2022-10-31T11:00:57.706Z,5.10
2022-10-31T11:03:25.079Z,1.85
2022-10-31T11:05:59.278Z,6.43
2022-10-31T11:08:27.880Z,5.50
2022-10-31T11:11:05.607Z,4.90
2022-10-31T11:13:34.278Z,5.97
2022-10-31T11:16:06.597Z,4.78
2022-10-31T11:18:34.632Z,9.43
2022-10-31T11:21:06.460Z,5.05
2022-10-31T11:23:34.510Z,2.35
2022-10-31T11:26:02.837Z,14.35
2022-10-31T11:28:31.108Z,8.30
2022-10-31T11:30:59.994Z,10.30
2022-10-31T11:33:30.132Z,3.50
2022-10-31T11:35:58.459Z,4.00
2022-10-31T11:38:31.103Z,7.78
2022-10-31T11:41:18.927Z,4.83
2022-10-31T11:44:00.765Z,7.20
2022-10-31T11:46:28.003Z,10.65
2022-10-31T11:48:56.111Z,6.03
2022-10-31T11:51:28.481Z,5.53
2022-10-31T11:54:00.164Z,5.82
2022-10-31T11:56:39.847Z,4.97
2022-10-31T11:59:16.734Z,10.15
2022-10-31T12:01:48.184Z,5.78
2022-10-31T12:04:16.858Z,8.88
2022-10-31T12:06:47.012Z,7.50
2022-10-31T12:09:31.153Z,6.75
2022-10-31T12:12:07.530Z,6.57
2022-10-31T12:14:34.782Z,3.80
2022-10-31T12:17:07.222Z,8.60
2022-10-31T12:19:38.316Z,4.80
2022-10-31T12:22:18.718Z,11.45
2022-10-31T12:25:14.933Z,5.03
2022-10-31T12:27:48.118Z,7.35
2022-10-31T12:30:41.531Z,8.63
2022-10-31T12:33:23.199Z,9.20
2022-10-31T12:35:59.546Z,10.32
2022-10-31T12:38:32.678Z,4.28
2022-10-31T12:41:19.073Z,5.95
2022-10-31T12:43:52.242Z,3.13
2022-10-31T12:46:28.881Z,4.90
2022-10-31T12:49:05.487Z,5.05
2022-10-31T12:51:41.933Z,3.42
2022-10-31T12:54:16.268Z,4.82
2022-10-31T12:57:05.292Z,10.05
2022-10-31T12:59:35.465Z,9.80
2022-10-31T13:02:21.368Z,14.90
2022-10-31T13:05:00.196Z,4.88
2022-10-31T13:07:30.954Z,7.90
2022-10-31T13:10:04.040Z,10.48
2022-10-31T13:12:34.793Z,6.28
2022-10-31T13:15:16.958Z,7.93
2022-10-31T13:17:46.888Z,2.63
2022-10-31T13:20:26.562Z,7.97
2022-10-31T13:22:56.404Z,6.40
2022-10-31T13:25:30.111Z,7.47
2022-10-31T13:28:00.135Z,10.55
2022-10-31T13:30:39.678Z,9.05
2022-10-31T13:33:13.434Z,7.75
2022-10-31T13:35:55.704Z,4.63
2022-10-31T13:38:31.800Z,9.57
2022-10-31T13:41:23.290Z,7.38
2022-10-31T13:43:50.473Z,11.50
2022-10-31T13:46:25.012Z,3.90
2022-10-31T13:48:52.229Z,8.82
2022-10-31T13:51:29.838Z,4.70
2022-10-31T13:53:56.990Z,9.55
2022-10-31T13:56:26.156Z,10.18
2022-10-31T13:59:05.325Z,13.13
2022-10-31T14:01:34.133Z,7.07
2022-10-31T14:04:15.664Z,4.28
2022-10-31T14:06:59.808Z,11.52
2022-10-31T14:09:32.785Z,12.63
2022-10-31T14:12:02.451Z,8.18
2022-10-31T14:14:33.804Z,13.80
2022-10-31T14:17:01.121Z,7.30
2022-10-31T14:19:28.809Z,3.95
2022-10-31T14:21:56.096Z,9.93
2022-10-31T14:24:26.481Z,13.43
2022-10-31T14:27:04.703Z,13.13
2022-10-31T14:29:32.962Z,11.93
2022-10-31T14:32:11.936Z,13.82
2022-10-31T14:34:41.928Z,11.68
2022-10-31T14:37:27.847Z,8.65
2022-10-31T14:39:55.080Z,10.48
2022-10-31T14:42:37.390Z,12.00
2022-10-31T14:45:12.975Z,13.07
2022-10-31T14:47:43.197Z,7.70
2022-10-31T14:50:19.374Z,8.88
2022-10-31T14:52:48.779Z,14.68
2022-10-31T14:55:16.363Z,11.82
2022-10-31T14:57:50.665Z,9.52
2022-10-31T15:00:19.645Z,10.63
2022-10-31T15:02:52.344Z,18.50
2022-10-31T15:07:59.950Z,15.45
2022-10-31T15:10:35.860Z,10.63
2022-10-31T15:13:19.083Z,7.63
2022-10-31T15:15:51.205Z,11.15
2022-10-31T15:18:20.993Z,16.73
2022-10-31T15:20:48.275Z,10.13
2022-10-31T15:23:26.667Z,10.13
2022-10-31T15:26:00.505Z,9.32
2022-10-31T15:28:28.015Z,11.07
2022-10-31T15:30:56.155Z,19.70
2022-10-31T15:33:37.554Z,14.57
2022-10-31T15:36:06.062Z,15.45
2022-10-31T15:38:33.914Z,14.32
2022-10-31T15:41:03.361Z,18.35
2022-10-31T15:43:34.883Z,14.32
2022-10-31T15:46:03.239Z,14.40
2022-10-31T15:48:32.920Z,21.63
2022-10-31T15:51:00.519Z,9.48
2022-10-31T15:53:29.073Z,15.70
2022-10-31T15:55:57.779Z,11.30
2022-10-31T15:58:25.725Z,12.15
2022-10-31T16:01:00.695Z,11.85
2022-10-31T16:03:32.212Z,12.55
2022-10-31T16:06:00.934Z,11.70
2022-10-31T16:08:31.275Z,13.02
2022-10-31T16:11:00.369Z,9.07
2022-10-31T16:13:32.153Z,16.02
2022-10-31T16:16:33.472Z,15.47
2022-10-31T16:18:50.856Z,17.33
2022-10-31T16:21:24.706Z,25.67
2022-10-31T16:23:58.051Z,15.15
2022-10-31T16:26:26.341Z,24.95
2022-10-31T16:29:03.265Z,17.88
2022-10-31T16:31:39.892Z,22.75
2022-10-31T16:34:16.965Z,18.40
2022-10-31T16:36:44.339Z,26.75
2022-10-31T16:39:11.722Z,18.60
2022-10-31T16:41:43.486Z,27.20
2022-10-31T16:44:19.428Z,19.30
2022-10-31T16:46:46.786Z,29.17
2022-10-31T16:49:16.561Z,33.50
2022-10-31T16:51:44.070Z,31.58
2022-10-31T16:54:11.815Z,22.88
2022-10-31T16:56:39.682Z,34.33
2022-10-31T16:59:13.316Z,26.17
2022-10-31T17:01:46.108Z,32.75
2022-10-31T17:04:15.335Z,24.10
2022-10-31T17:06:43.052Z,32.90
2022-10-31T17:09:10.834Z,28.58
2022-10-31T17:11:38.983Z,32.55
2022-10-31T17:14:06.388Z,31.35
2022-10-31T17:16:33.712Z,25.02
2022-10-31T17:19:00.953Z,31.27
2022-10-31T17:21:28.195Z,28.98
2022-10-31T17:23:55.546Z,36.05
2022-10-31T17:26:23.235Z,31.73
2022-10-31T17:28:50.426Z,24.85
2022-10-31T17:31:29.349Z,28.85
2022-10-31T17:34:02.058Z,35.00
2022-10-31T17:36:31.034Z,27.83
2022-10-31T17:38:58.444Z,25.20
2022-10-31T17:41:25.673Z,26.38
2022-10-31T17:44:00.474Z,31.02
2022-10-31T17:46:28.865Z,35.38
2022-10-31T17:48:56.877Z,27.05
2022-10-31T17:51:25.169Z,21.55
2022-10-31T17:53:52.437Z,36.33
2022-10-31T17:56:19.769Z,26.67
2022-10-31T17:58:48.423Z,30.77
2022-10-31T18:01:16.488Z,30.98
2022-10-31T18:03:44.115Z,29.90
2022-10-31T18:06:11.853Z,30.80
2022-10-31T18:08:41.633Z,27.95
2022-10-31T18:11:14.740Z,26.42
2022-10-31T18:13:42.192Z,26.05
2022-10-31T18:16:13.481Z,27.83
2022-10-31T18:18:40.851Z,31.75
2022-10-31T18:21:08.050Z,27.55
2022-10-31T18:23:35.337Z,33.17
2022-10-31T18:26:02.694Z,31.75
2022-10-31T18:28:29.941Z,30.85
2022-10-31T18:31:00.494Z,28.17
2022-10-31T18:33:27.903Z,26.38
2022-10-31T18:35:55.172Z,27.85
2022-10-31T18:38:22.672Z,34.13
2022-10-31T18:40:49.845Z,28.10
2022-10-31T18:43:17.253Z,25.60
2022-10-31T18:45:47.899Z,32.63
2022-10-31T18:48:17.472Z,27.08
2022-10-31T18:50:44.966Z,31.48
2022-10-31T18:53:12.459Z,29.27
2022-10-31T18:55:43.985Z,24.42
2022-10-31T18:58:14.823Z,32.58
2022-10-31T19:00:42.074Z,20.85
2022-10-31T19:03:10.400Z,32.90
2022-10-31T19:05:37.689Z,30.55
2022-10-31T19:08:05.128Z,25.67
2022-10-31T19:10:32.310Z,40.65
2022-10-31T19:12:59.717Z,40.60
2022-10-31T19:15:27.161Z,28.45
2022-10-31T19:17:55.293Z,34.42
2022-10-31T19:20:22.703Z,34.15
2022-10-31T19:22:50.087Z,23.40
2022-10-31T19:25:17.322Z,29.33
2022-10-31T19:27:44.713Z,33.33
2022-10-31T19:30:12.548Z,29.27
2022-10-31T19:32:39.943Z,21.15
2022-10-31T19:35:11.487Z,22.35
2022-10-31T19:37:39.679Z,24.85
2022-10-31T19:40:08.042Z,31.10
2022-10-31T19:42:35.884Z,26.95
2022-10-31T19:45:03.633Z,30.13
2022-10-31T19:47:30.924Z,30.40
2022-10-31T19:49:58.103Z,34.85
2022-10-31T19:52:25.292Z,24.48
2022-10-31T19:54:52.506Z,25.98
2022-10-31T19:57:35.832Z,23.48
2022-10-31T20:00:07.258Z,29.27
2022-10-31T20:02:34.606Z,29.23
2022-10-31T20:05:02.257Z,22.98
2022-10-31T20:07:29.441Z,38.65
2022-10-31T20:09:56.736Z,32.40
2022-10-31T20:12:23.950Z,26.65
2022-10-31T20:14:51.203Z,19.98
2022-10-31T20:17:18.472Z,22.88
2022-10-31T20:19:45.880Z,31.33
2022-10-31T20:22:13.287Z,29.63
2022-10-31T20:24:40.603Z,33.03
2022-10-31T20:27:07.810Z,30.92
2022-10-31T20:29:35.049Z,37.47
2022-10-31T20:32:02.233Z,28.15
2022-10-31T20:34:29.720Z,28.02
2022-10-31T20:36:57.008Z,42.45
2022-10-31T20:39:24.166Z,25.65
2022-10-31T20:41:51.414Z,23.83
2022-10-31T20:44:18.890Z,25.52
2022-10-31T20:46:46.101Z,30.83
2022-10-31T20:49:13.324Z,29.50
2022-10-31T20:51:40.557Z,23.42
2022-10-31T20:54:08.085Z,16.90
2022-10-31T20:56:35.432Z,21.20
2022-10-31T20:59:02.659Z,22.00
2022-10-31T21:01:31.326Z,17.63
2022-10-31T21:03:58.887Z,21.63
2022-10-31T21:06:26.516Z,18.48
2022-10-31T21:08:53.980Z,15.90
2022-10-31T21:11:23.613Z,16.50
2022-10-31T21:13:50.976Z,25.13
2022-10-31T21:16:20.284Z,19.08
2022-10-31T21:18:49.277Z,23.42
2022-10-31T21:21:29.041Z,23.98
2022-10-31T21:24:04.273Z,17.08
2022-10-31T21:26:33.571Z,25.40
2022-10-31T21:29:01.391Z,21.55
2022-10-31T21:31:28.581Z,26.33
2022-10-31T21:33:56.061Z,24.52
2022-10-31T21:36:23.331Z,25.10
2022-10-31T21:38:53.642Z,27.75
2022-10-31T21:41:21.241Z,31.15
2022-10-31T21:43:49.874Z,30.25
2022-10-31T21:46:18.580Z,28.55
2022-10-31T21:48:46.577Z,28.75
2022-10-31T21:51:15.594Z,22.38
2022-10-31T21:54:02.092Z,15.88
2022-10-31T21:56:29.549Z,10.57
2022-10-31T21:58:57.093Z,24.77
2022-10-31T22:01:25.151Z,25.15
2022-10-31T22:03:52.538Z,24.15
2022-10-31T22:06:19.843Z,21.13
2022-10-31T22:08:47.091Z,16.90
2022-10-31T22:11:16.326Z,8.93
2022-10-31T22:13:45.936Z,14.68
2022-10-31T22:16:14.385Z,19.60
2022-10-31T22:18:42.180Z,11.82
2022-10-31T22:21:12.252Z,16.33
2022-10-31T22:23:39.613Z,15.40
2022-10-31T22:26:08.237Z,16.80
2022-10-31T22:28:35.816Z,22.50
2022-10-31T22:31:07.590Z,13.98
2022-10-31T22:33:37.496Z,18.98
2022-10-31T22:36:06.222Z,12.95
2022-10-31T22:38:40.387Z,16.17
2022-10-31T22:41:08.554Z,11.60
2022-10-31T22:43:36.132Z,20.77
2022-10-31T22:46:05.262Z,15.55
2022-10-31T22:48:37.520Z,14.15
2022-10-31T22:51:08.416Z,21.73
2022-10-31T22:53:35.990Z,27.92
2022-10-31T22:56:03.739Z,29.23
2022-10-31T22:58:31.217Z,30.00
2022-10-31T23:00:58.449Z,24.92
2022-10-31T23:03:25.968Z,26.35
2022-10-31T23:05:58.514Z,23.83
2022-10-31T23:08:26.306Z,16.17
2022-10-31T23:10:53.821Z,17.98
2022-10-31T23:13:39.866Z,23.35
2022-10-31T23:16:10.480Z,21.42
2022-10-31T23:18:49.707Z,20.23
2022-10-31T23:21:37.081Z,17.70
2022-10-31T23:24:04.357Z,17.52
2022-10-31T23:26:50.225Z,20.67
2022-10-31T23:29:17.418Z,18.15
2022-10-31T23:31:44.579Z,21.08
2022-10-31T23:34:11.795Z,23.55
2022-10-31T23:36:38.998Z,26.90
2022-10-31T23:39:07.305Z,25.75
2022-10-31T23:41:34.568Z,25.75
2022-10-31T23:44:01.781Z,22.38
2022-10-31T23:46:28.993Z,16.60
2022-10-31T23:48:56.173Z,15.55
2022-10-31T23:51:23.546Z,23.67
2022-10-31T23:53:50.720Z,14.98
2022-10-31T23:56:17.913Z,14.55
2022-10-31T23:58:45.117Z,24.05
